Map

Track Data

SID SEASON NUMBER BASIN SUBBASIN NAME ISO_TIME NATURE LAT LON WMO_WIND WMO_PRES WMO_AGENCY TRACK_TYPE DIST2LAND LANDFALL IFLAG USA_AGENCY USA_ATCF_ID USA_LAT USA_LON USA_RECORD USA_STATUS USA_WIND USA_PRES USA_SSHS USA_R34_NE USA_R34_SE USA_R34_SW USA_R34_NW USA_R50_NE USA_R50_SE USA_R50_SW USA_R50_NW USA_R64_NE USA_R64_SE USA_R64_SW USA_R64_NW USA_POCI USA_ROCI USA_RMW USA_EYE TOKYO_LAT TOKYO_LON TOKYO_GRADE TOKYO_WIND TOKYO_PRES TOKYO_R50_DIR TOKYO_R50_LONG TOKYO_R50_SHORT TOKYO_R30_DIR TOKYO_R30_LONG TOKYO_R30_SHORT TOKYO_LAND CMA_LAT CMA_LON CMA_CAT CMA_WIND CMA_PRES HKO_LAT HKO_LON HKO_CAT HKO_WIND HKO_PRES NEWDELHI_LAT NEWDELHI_LON NEWDELHI_GRADE NEWDELHI_WIND NEWDELHI_PRES NEWDELHI_CI NEWDELHI_DP NEWDELHI_POCI REUNION_LAT REUNION_LON REUNION_TYPE REUNION_WIND REUNION_PRES REUNION_TNUM REUNION_CI REUNION_RMW REUNION_R34_NE REUNION_R34_SE REUNION_R34_SW REUNION_R34_NW REUNION_R50_NE REUNION_R50_SE REUNION_R50_SW REUNION_R50_NW REUNION_R64_NE REUNION_R64_SE REUNION_R64_SW REUNION_R64_NW BOM_LAT BOM_LON BOM_TYPE BOM_WIND BOM_PRES BOM_TNUM BOM_CI BOM_RMW BOM_R34_NE BOM_R34_SE BOM_R34_SW BOM_R34_NW BOM_R50_NE BOM_R50_SE BOM_R50_SW BOM_R50_NW BOM_R64_NE BOM_R64_SE BOM_R64_SW BOM_R64_NW BOM_ROCI BOM_POCI BOM_EYE BOM_POS_METHOD BOM_PRES_METHOD NADI_LAT NADI_LON NADI_CAT NADI_WIND NADI_PRES WELLINGTON_LAT WELLINGTON_LON WELLINGTON_WIND WELLINGTON_PRES DS824_LAT DS824_LON DS824_STAGE DS824_WIND DS824_PRES TD9636_LAT TD9636_LON TD9636_STAGE TD9636_WIND TD9636_PRES TD9635_LAT TD9635_LON TD9635_WIND TD9635_PRES TD9635_ROCI NEUMANN_LAT NEUMANN_LON NEUMANN_CLASS NEUMANN_WIND NEUMANN_PRES MLC_LAT MLC_LON MLC_CLASS MLC_WIND MLC_PRES USA_GUST BOM_GUST BOM_GUST_PER REUNION_GUST REUNION_GUST_PER USA_SEAHGT USA_SEARAD_NE USA_SEARAD_SE USA_SEARAD_SW USA_SEARAD_NW STORM_SPEED STORM_DIR
1860122S07447 1860 18 SI MM NOT_NAMED 1860-04-30 18:00:00 NR -7.30000 86.7000 main 1486 1486 __________O___ -1 -7.30000 86.7000 7 5 253
1860122S07447 1860 18 SI MM NOT_NAMED 1860-04-30 21:00:00 NR -7.37032 86.4657 main 1511 1511 __________P___ -1 -7.37032 86.4657 7 5 254
1860122S07447 1860 18 SI MM NOT_NAMED 1860-05-01 00:00:00 NR -7.44248 86.2150 main 1541 1541 __________P___ -1 -7.44248 86.2150 7 6 254
1860122S07447 1860 18 SI MM NOT_NAMED 1860-05-01 03:00:00 NR -7.51841 85.9319 main 1575 1575 __________P___ -1 -7.51841 85.9319 7 6 256
1860122S07447 1860 18 SI MM NOT_NAMED 1860-05-01 06:00:00 NR -7.60000 85.6000 main 1609 1603 __________O___ -1 -7.60000 85.6000 7 7 257
1860122S07447 1860 18 SI MM NOT_NAMED 1860-05-01 09:00:00 NR -7.68877 85.2084 main 1607 1597 __________P___ -1 -7.68877 85.2084 7 8 257
1860122S07447 1860 18 SI MM NOT_NAMED 1860-05-01 12:00:00 NR -7.78500 84.7674 main 1604 1595 __________P___ -1 -7.78500 84.7674 7 9 258
1860122S07447 1860 18 SI MM NOT_NAMED 1860-05-01 15:00:00 NR -7.88871 84.2927 main 1600 1591 __________P___ -1 -7.88871 84.2927 7 10 257
1860122S07447 1860 18 SI MM NOT_NAMED 1860-05-01 18:00:00 NR -8.00000 83.8000 main 1597 1592 __________O___ -1 -8.00000 83.8000 7 10 257
1860122S07447 1860 18 SI MM NOT_NAMED 1860-05-01 21:00:00 NR -8.11771 83.3143 main 1597 1595 __________P___ -1 -8.11771 83.3143 7 10 256
1860122S07447 1860 18 SI MM NOT_NAMED 1860-05-02 00:00:00 NR -8.24236 82.8149 main 1598 1598 __________P___ -1 -8.24236 82.8149 7 10 256
1860122S07447 1860 18 SI MM NOT_NAMED 1860-05-02 03:00:00 NR -8.37082 82.3081 main 1613 1609 __________P___ -1 -8.37082 82.3081 7 10 256
1860122S07447 1860 18 SI MM NOT_NAMED 1860-05-02 06:00:00 NR -8.50000 81.8000 main 1619 1617 __________O___ -1 -8.50000 81.8000 7 10 256
1860122S07447 1860 18 SI MM NOT_NAMED 1860-05-02 09:00:00 NR -8.61234 81.3281 main 1626 1626 __________P___ -1 -8.61234 81.3281 7 10 256
1860122S07447 1860 18 SI MM NOT_NAMED 1860-05-02 12:00:00 NR -8.72678 80.8519 main 1636 1636 __________P___ -1 -8.72678 80.8519 7 10 256
1860122S07447 1860 18 SI MM NOT_NAMED 1860-05-02 15:00:00 NR -8.85286 80.3498 main 1658 1658 __________P___ -1 -8.85286 80.3498 7 11 255
1860122S07447 1860 18 SI MM NOT_NAMED 1860-05-02 18:00:00 NR -9.00000 79.8000 main 1671 1671 __________O___ -1 -9.00000 79.8000 7 12 254
1860122S07447 1860 18 SI MM NOT_NAMED 1860-05-02 21:00:00 NR -9.18284 79.1512 main 1699 1699 __________P___ -1 -9.18284 79.1512 7 14 254
1860122S07447 1860 18 SI MM NOT_NAMED 1860-05-03 00:00:00 NR -9.38551 78.4578 main 1730 1730 __________P___ -1 -9.38551 78.4578 7 14 253
1860122S07447 1860 18 SI MM NOT_NAMED 1860-05-03 03:00:00 NR -9.59535 77.7605 main 1764 1764 __________P___ -1 -9.59535 77.7605 7 14 253
1860122S07447 1860 18 SI MM NOT_NAMED 1860-05-03 06:00:00 NR -9.80000 77.1000 main 1801 1801 __________O___ -1 -9.80000 77.1000 7 13 253
1860122S07447 1860 18 SI MM NOT_NAMED 1860-05-03 09:00:00 NR -9.97335 76.5396 main 1838 1838 __________P___ -1 -9.97335 76.5396 7 11 252
1860122S07447 1860 18 SI MM NOT_NAMED 1860-05-03 12:00:00 NR -10.1415 76.0194 main 1863 1863 __________P___ -1 -10.1415 76.0194 7 11 251
1860122S07447 1860 18 SI MM NOT_NAMED 1860-05-03 15:00:00 NR -10.3140 75.5145 main 1901 1901 __________P___ -1 -10.3140 75.5145 7 11 250
1860122S07447 1860 18 SI MM NOT_NAMED 1860-05-03 18:00:00 NR -10.5000 75.0000 main 1939 1939 __________O___ -1 -10.5000 75.0000 7 12 250
1860122S07447 1860 18 SI MM NOT_NAMED 1860-05-03 21:00:00 NR -10.7108 74.4070 main 1982 1982 __________P___ -1 -10.7108 74.4070 7 13 250
1860122S07447 1860 18 SI MM NOT_NAMED 1860-05-04 00:00:00 NR -10.9353 73.8052 main 2007 1943 __________P___ -1 -10.9353 73.8052 7 12 249
1860122S07447 1860 18 SI MM NOT_NAMED 1860-05-04 03:00:00 NR -11.1671 73.2257 main 1934 1876 __________P___ -1 -11.1671 73.2257 7 12 247
1860122S07447 1860 18 SI MM NOT_NAMED 1860-05-04 06:00:00 NR -11.4000 72.7000 main 1876 1827 __________O___ -1 -11.4000 72.7000 7 10 245
1860122S07447 1860 18 SI MM NOT_NAMED 1860-05-04 09:00:00 NR -11.6122 72.2670 main 1827 1778 __________P___ -1 -11.6122 72.2670 7 9 242
1860122S07447 1860 18 SI MM NOT_NAMED 1860-05-04 12:00:00 NR -11.8267 71.8893 main 1778 1739 __________P___ -1 -11.8267 71.8893 7 8 238
1860122S07447 1860 18 SI MM NOT_NAMED 1860-05-04 15:00:00 NR -12.0529 71.5420 main 1723 1684 __________P___ -1 -12.0529 71.5420 7 8 235
1860122S07447 1860 18 SI MM NOT_NAMED 1860-05-04 18:00:00 NR -12.3000 71.2000 main 1684 1638 __________O___ -1 -12.3000 71.2000 7 9 233
1860122S07447 1860 18 SI MM NOT_NAMED 1860-05-04 21:00:00 NR -12.5742 70.8431 main 1629 1583 __________P___ -1 -12.5742 70.8431 7 9 231
1860122S07447 1860 18 SI MM NOT_NAMED 1860-05-05 00:00:00 NR -12.8707 70.4710 main 1583 1529 __________P___ -1 -12.8707 70.4710 7 10 230
1860122S07447 1860 18 SI MM NOT_NAMED 1860-05-05 03:00:00 NR -13.1819 70.0884 main 1529 1474 __________P___ -1 -13.1819 70.0884 7 10 230
1860122S07447 1860 18 SI MM NOT_NAMED 1860-05-05 06:00:00 NR -13.5000 69.7000 main 1474 __________O___ -1 -13.5000 69.7000 7 10 230

About IBTrACS Database

This database is a web-friendly format of International Best Track Archive for Climate Stewardship (IBTrACS), a global best track data archive curated by NOAA dating back to 1842.

Updated: 2021-12-03